Main page
METAR-TAF:

METAR-TAF

Airports :

Oran Es Sénia Airport

Oran, Algeria

latitude: 35-38N, longitude: 000-36W, elevation: 90 m

Current weather observation

The report was made 1 hour and 4 minutes ago, at 11:00 UTC
Wind 14 kt from the Southwest
Temperature 21°C
Humidity 64%
Pressure 1016 hPa
Visibility 10 km or more
Scattered clouds at a height of 2300 ft

METAR: DAOO 061100Z 22014KT 9999 SCT023 21/14 Q1016

Time: 13:04 (12:04 UTC)

Forecast

The report was made 1 hour and 4 minutes ago, at 11:00 UTC
Forecast valid from 06 at 12 UTC to 07 at 12 UTC
Wind 14 kt from the Southwest
Visibility 10 km or more
Few clouds at a height of 2600 ft
Becoming
from 06 at 23 UTC to 07 at 02 UTC
Wind 2 kt from variable directions
Visibility 10 km or more
no clouds below 1500 m and no cumulonimbus
Becoming
from 07 at 09 UTC to 07 at 12 UTC
Wind 8 kt from the North/Northwest

TAF: DAOO 061100Z 0612/0712 22014KT 9999 FEW026 BECMG 0623/0702 VRB02KT CAVOK BECMG 0709/0712 34008KT

Weather observations and forecasts of more than 4000 airports (METAR and TAF reports).

The available stations are represented by yellow and red dots on the map.

Hover mouse over dot to see the name of the station.

Then click to see weather observations and forecasts.

To change the map : click on the green buttons with a black cross to zoom in, on the green button with a dash to zoom out, or on the green arrows for adjacent maps.


METAR-TAF: